Pagrindinis puslapis
METAR-TAF:

METAR-TAF

Oro uostai :

Meiringen, Šveicarija

platuma: 46-44-25N, ilguma: 8-06-36E, Aukštis: 577 m

Dabartinis oras

Ataskaita buvo paskelbta 39 minutes, ne 20:50 UTC
Vėjas 6 kt iš Vakarų, svyruoja nuo Pietvakarių ir Šiaurės/Šiaurės Vakarų
Temperatūra 3°C
Drėgmė 81%
Slėgis 1010 hPa
Matomumas 10 km arba daugiau
Su prošvaistėmis ne aukštis 5500 ft
Apsiniaukę ne aukštis 7100 ft

METAR: LSMM 272050Z 26006KT 230V330 9999 BKN055 OVC071 03/00 Q1010 RMK BLU

Laikas: 22:29 (21:29 UTC)


TAF: trūkstamas

Orai ataskaitas ir orų prognozės (METAR, TAF).

turimą stotys yra geltonos ir raudonos taškus žemėlapyje.

Perkelti pele per norėdami pamatyti stoties vardą.

Tada spustelėkite, norėdami matyti oro stebėjimo ir prognozės.

Norėdami pakeisti žemėlapį: spustelėkite ant žalios mygtukų su juodo kryžiaus žemyn,; žalią mygtuką su brūkšneliu, jei norite nutolinti; arba žalių rodyklių gretimoms žemėlapius.


METAR-TAF: